Terminal Aerodrome Forecast
Issued by NWS

Home | Current Version | Previous Version | Text Only | Print | Product List | Glossary On
Versions: 1 2 3 4 5 6 7 8 9 10 11 12 13 14 15 16 17 18 19 20 21 22 23 24 25 26 27 28 29 30 31 32 33 34 35 36 37 38
000
FTUS45 KBOU 012329
TAFAPA
TAF
KAPA 012329Z 0200/0224 17007KT P6SM SCT070 BKN200
     FM020200 19007KT P6SM SCT120 BKN200
     FM020800 VRB03KT P6SM FEW120
     FM021800 11005KT P6SM SCT070
     FM022100 14007KT P6SM SCT070=

USA.gov is the U.S. government's official web portal to all federal, state and local government web resources and services.